createdAt,value
2017-12-05T00:05:34.989Z,31.60
2017-12-05T00:10:48.655Z,29.93
2017-12-05T00:15:54.702Z,41.97
2017-12-05T00:18:25.035Z,28.67
2017-12-05T00:20:53.565Z,31.07
2017-12-05T00:23:30.719Z,29.70
2017-12-05T00:28:36.434Z,37.00
2017-12-05T00:33:48.622Z,34.50
2017-12-05T00:38:55.144Z,37.83
2017-12-05T00:41:30.667Z,26.50
2017-12-05T00:43:57.597Z,40.33
2017-12-05T00:46:25.619Z,38.03
2017-12-05T00:49:00.583Z,42.27
2017-12-05T00:51:27.924Z,43.80
2017-12-05T00:59:14.590Z,36.23
2017-12-05T01:01:43.102Z,32.87
2017-12-05T01:04:13.038Z,32.77
2017-12-05T01:06:40.390Z,41.93
2017-12-05T01:11:49.105Z,41.67
2017-12-05T01:16:55.307Z,46.73
2017-12-05T01:19:30.644Z,34.87
2017-12-05T01:21:57.992Z,44.03
2017-12-05T01:24:25.701Z,29.43
2017-12-05T01:26:54.989Z,26.90
2017-12-05T01:29:30.725Z,32.00
2017-12-05T01:31:57.634Z,32.50
2017-12-05T01:34:30.602Z,26.33
2017-12-05T01:36:57.871Z,26.17
2017-12-05T01:39:24.724Z,26.87
2017-12-05T01:41:51.594Z,28.07
2017-12-05T01:49:37.190Z,32.63
2017-12-05T01:52:04.190Z,22.97
2017-12-05T01:54:31.234Z,24.07
2017-12-05T01:56:58.167Z,23.80
2017-12-05T01:59:25.464Z,36.37
2017-12-05T02:01:55.200Z,28.27
2017-12-05T02:04:25.095Z,28.50
2017-12-05T02:06:55.238Z,37.43
2017-12-05T02:12:01.654Z,35.63
2017-12-05T02:14:28.664Z,28.70
2017-12-05T02:16:55.941Z,27.67
2017-12-05T02:19:23.642Z,26.20
2017-12-05T02:21:51.007Z,31.73
2017-12-05T02:26:57.391Z,34.00
2017-12-05T02:29:24.258Z,39.40
2017-12-05T02:31:51.126Z,31.27
2017-12-05T02:34:19.529Z,33.97
2017-12-05T02:36:49.239Z,35.53
2017-12-05T02:39:19.169Z,35.93
2017-12-05T02:44:31.102Z,29.17
2017-12-05T02:49:38.920Z,36.80
2017-12-05T02:52:06.230Z,38.37
2017-12-05T02:54:33.865Z,35.23
2017-12-05T02:57:01.268Z,40.00
2017-12-05T03:02:13.194Z,34.83
2017-12-05T03:04:43.333Z,38.07
2017-12-05T03:07:18.647Z,38.60
2017-12-05T03:12:25.935Z,40.70
2017-12-05T03:14:53.244Z,48.77
2017-12-05T03:17:25.171Z,37.63
2017-12-05T03:22:31.730Z,37.47
2017-12-05T03:25:06.658Z,26.77
2017-12-05T03:30:12.955Z,38.27
2017-12-05T03:32:40.202Z,37.80
2017-12-05T03:35:13.166Z,31.90
2017-12-05T03:37:40.996Z,43.37
2017-12-05T03:40:07.915Z,52.47
2017-12-05T03:50:33.339Z,30.03
2017-12-05T03:53:00.720Z,27.77
2017-12-05T03:55:28.054Z,32.70
2017-12-05T03:57:55.739Z,42.77
2017-12-05T04:03:01.912Z,39.50
2017-12-05T04:05:36.650Z,33.10
2017-12-05T04:08:04.423Z,44.47
2017-12-05T04:10:31.740Z,35.87
2017-12-05T04:12:58.667Z,26.70
2017-12-05T04:18:07.382Z,41.23
2017-12-05T04:20:34.391Z,32.43
2017-12-05T04:25:40.948Z,36.60
2017-12-05T04:28:08.253Z,45.90
2017-12-05T04:30:35.521Z,37.07
2017-12-05T04:33:04.083Z,44.87
2017-12-05T04:35:30.975Z,44.70
2017-12-05T04:38:06.740Z,41.30
2017-12-05T04:43:13.417Z,39.20
2017-12-05T04:45:43.323Z,36.87
2017-12-05T04:56:08.896Z,32.03
2017-12-05T04:58:43.323Z,41.53
2017-12-05T05:01:10.308Z,32.70
2017-12-05T05:03:38.727Z,33.47
2017-12-05T05:06:06.820Z,48.03
2017-12-05T05:11:13.225Z,47.57
2017-12-05T05:13:48.736Z,30.67
2017-12-05T05:18:54.924Z,37.97
2017-12-05T05:21:22.271Z,22.73
2017-12-05T05:23:55.234Z,27.50
2017-12-05T05:26:22.295Z,37.57
2017-12-05T05:28:49.952Z,36.83
2017-12-05T05:31:24.665Z,19.47
2017-12-05T05:33:51.627Z,22.33
2017-12-05T05:36:18.538Z,29.40
2017-12-05T05:46:49.321Z,30.87
2017-12-05T05:49:19.167Z,33.50
2017-12-05T05:51:49.291Z,37.73
2017-12-05T05:54:19.167Z,25.23
2017-12-05T05:56:46.417Z,22.00
2017-12-05T05:59:13.742Z,46.23
2017-12-05T06:01:43.207Z,26.63
2017-12-05T06:04:10.823Z,44.90
2017-12-05T06:06:37.924Z,41.20
2017-12-05T06:09:07.184Z,29.33
2017-12-05T06:17:00.839Z,21.90
2017-12-05T06:19:28.140Z,34.80
2017-12-05T06:21:54.992Z,34.77
2017-12-05T06:24:22.228Z,19.20
2017-12-05T06:26:50.015Z,38.77
2017-12-05T06:32:06.827Z,24.40
2017-12-05T06:34:33.779Z,50.33
2017-12-05T06:37:06.959Z,47.57
2017-12-05T06:39:42.735Z,49.83
2017-12-05T06:42:10.115Z,39.63
2017-12-05T06:44:37.326Z,45.73
2017-12-05T06:47:04.572Z,70.37
2017-12-05T06:52:13.247Z,29.30
2017-12-05T06:54:43.355Z,42.27
2017-12-05T06:57:10.216Z,32.40
2017-12-05T06:59:37.058Z,28.77
2017-12-05T07:02:03.920Z,25.40
2017-12-05T07:07:11.059Z,32.23
2017-12-05T07:12:17.839Z,29.93
2017-12-05T07:14:45.117Z,37.07
2017-12-05T07:17:12.359Z,31.83
2017-12-05T07:19:39.254Z,34.30
2017-12-05T07:24:54.907Z,28.10
2017-12-05T07:30:06.851Z,33.67
2017-12-05T07:32:34.116Z,24.87
2017-12-05T07:35:00.989Z,21.87
2017-12-05T07:37:27.959Z,26.70
2017-12-05T07:39:55.357Z,23.80
2017-12-05T07:45:02.273Z,34.70
2017-12-05T07:47:36.823Z,30.77
2017-12-05T07:52:42.904Z,39.07
2017-12-05T07:55:13.387Z,48.63
2017-12-05T07:57:41.225Z,33.83
2017-12-05T08:00:08.512Z,54.90
2017-12-05T08:02:35.757Z,40.93
2017-12-05T08:05:07.387Z,30.93
2017-12-05T08:07:37.260Z,31.37
2017-12-05T08:10:12.823Z,35.77
2017-12-05T08:12:40.156Z,29.37
2017-12-05T08:15:07.397Z,50.03
2017-12-05T08:17:34.233Z,55.87
2017-12-05T08:25:19.004Z,33.20
2017-12-05T08:27:54.798Z,48.83
2017-12-05T08:30:21.652Z,51.87
2017-12-05T08:32:48.810Z,34.07
2017-12-05T08:35:17.160Z,26.40
2017-12-05T08:40:23.120Z,45.50
2017-12-05T08:43:00.932Z,49.70
2017-12-05T08:45:28.265Z,45.50
2017-12-05T08:47:55.589Z,47.83
2017-12-05T08:50:22.471Z,43.60
2017-12-05T08:52:49.831Z,59.63
2017-12-05T08:55:17.907Z,39.80
2017-12-05T08:57:46.463Z,48.10
2017-12-05T09:03:00.817Z,41.47
2017-12-05T09:08:08.004Z,44.30
2017-12-05T09:10:34.856Z,44.53
2017-12-05T09:13:03.550Z,40.33
2017-12-05T09:15:42.931Z,47.77
2017-12-05T09:23:31.397Z,39.20
2017-12-05T09:26:01.322Z,50.37
2017-12-05T09:28:31.422Z,53.47
2017-12-05T09:30:58.465Z,40.27
2017-12-05T09:33:36.923Z,44.63
2017-12-05T09:36:03.785Z,36.80
2017-12-05T09:41:11.628Z,41.50
2017-12-05T09:46:17.455Z,34.27
2017-12-05T09:48:49.367Z,34.63
2017-12-05T09:53:55.744Z,41.03
2017-12-05T09:59:12.872Z,40.10
2017-12-05T10:01:39.791Z,42.23
2017-12-05T10:06:46.150Z,30.27
2017-12-05T10:09:19.465Z,44.77
2017-12-05T10:11:46.763Z,33.60
2017-12-05T10:14:14.552Z,44.87
2017-12-05T10:16:48.903Z,39.93
2017-12-05T10:19:16.673Z,42.50
2017-12-05T10:21:44.835Z,42.53
2017-12-05T10:26:52.671Z,50.03
2017-12-05T10:29:20.357Z,49.33
2017-12-05T10:31:49.495Z,37.20
2017-12-05T10:37:00.871Z,43.40
2017-12-05T10:39:29.475Z,35.47
2017-12-05T10:44:37.419Z,40.10
2017-12-05T10:49:43.868Z,44.10
2017-12-05T10:54:50.047Z,60.73
2017-12-05T10:57:16.899Z,44.80
2017-12-05T10:59:52.775Z,51.13
2017-12-05T11:02:19.768Z,43.27
2017-12-05T11:04:54.871Z,45.03
2017-12-05T11:15:19.801Z,42.53
2017-12-05T11:20:26.622Z,47.63
2017-12-05T11:22:53.479Z,60.83
2017-12-05T11:25:30.827Z,46.40
2017-12-05T11:28:06.967Z,46.47
2017-12-05T11:30:42.169Z,47.13
2017-12-05T11:33:09.503Z,29.83
2017-12-05T11:38:24.979Z,42.10
2017-12-05T11:40:51.957Z,42.53
2017-12-05T11:43:30.956Z,44.00
2017-12-05T11:45:57.870Z,42.07
2017-12-05T11:48:30.983Z,49.63
2017-12-05T11:51:01.403Z,44.33
2017-12-05T11:56:07.195Z,43.53
2017-12-05T11:58:34.819Z,41.43
2017-12-05T12:01:01.673Z,43.10
2017-12-05T12:03:28.544Z,32.97
2017-12-05T12:11:12.859Z,46.73
2017-12-05T12:13:40.143Z,43.00
2017-12-05T12:16:07.779Z,36.47
2017-12-05T12:18:34.752Z,30.50
2017-12-05T12:21:03.230Z,44.80
2017-12-05T12:23:30.087Z,45.93
2017-12-05T12:25:56.972Z,38.87
2017-12-05T12:28:24.187Z,39.37
2017-12-05T12:30:57.380Z,40.77
2017-12-05T12:33:24.272Z,37.10
2017-12-05T12:35:51.271Z,46.93
2017-12-05T12:38:19.871Z,38.90
2017-12-05T12:40:48.075Z,36.60
2017-12-05T12:43:15.329Z,36.13
2017-12-05T12:45:43.528Z,34.80
2017-12-05T12:51:00.871Z,42.70
2017-12-05T12:53:28.659Z,51.67
2017-12-05T12:55:55.529Z,41.97
2017-12-05T12:58:25.371Z,32.17
2017-12-05T13:03:32.173Z,39.43
2017-12-05T13:05:59.912Z,35.77
2017-12-05T13:08:27.523Z,34.20
2017-12-05T13:10:54.371Z,39.43
2017-12-05T13:16:01.321Z,39.37
2017-12-05T13:18:28.601Z,35.77
2017-12-05T13:21:01.376Z,39.40
2017-12-05T13:26:07.341Z,35.47
2017-12-05T13:28:37.434Z,33.40
2017-12-05T13:31:04.699Z,40.63
2017-12-05T13:33:31.604Z,36.57
2017-12-05T13:38:49.069Z,55.23
2017-12-05T13:41:19.503Z,33.00
2017-12-05T13:49:05.656Z,36.73
2017-12-05T13:51:32.503Z,34.90
2017-12-05T13:54:00.152Z,34.23
2017-12-05T13:59:19.069Z,32.17
2017-12-05T14:04:25.797Z,34.40
2017-12-05T14:06:53.045Z,32.83
2017-12-05T14:09:19.911Z,30.63
2017-12-05T14:11:46.760Z,36.73
2017-12-05T14:14:24.983Z,27.97
2017-12-05T14:16:52.304Z,32.10
2017-12-05T14:19:19.960Z,36.20
2017-12-05T14:21:54.970Z,42.03
2017-12-05T14:24:22.270Z,30.13
2017-12-05T14:26:49.732Z,26.30
2017-12-05T14:29:17.338Z,25.60
2017-12-05T14:31:49.583Z,30.73
2017-12-05T14:39:42.925Z,29.40
2017-12-05T14:42:09.861Z,30.00
2017-12-05T14:44:37.536Z,33.10
2017-12-05T14:47:05.583Z,33.10
2017-12-05T14:52:19.063Z,27.47
2017-12-05T14:54:54.917Z,38.33
2017-12-05T14:57:22.251Z,47.30
2017-12-05T14:59:49.952Z,26.80
2017-12-05T15:02:17.816Z,38.50
2017-12-05T15:07:36.967Z,27.10
2017-12-05T15:10:04.304Z,45.20
2017-12-05T15:15:19.014Z,33.60
2017-12-05T15:17:46.431Z,28.17
2017-12-05T15:22:55.615Z,26.83
2017-12-05T15:25:30.934Z,41.90
2017-12-05T15:28:07.003Z,36.00
2017-12-05T15:35:54.245Z,34.30
2017-12-05T15:38:22.328Z,38.83
2017-12-05T15:41:00.981Z,44.27
2017-12-05T15:46:13.568Z,54.90
2017-12-05T15:51:19.521Z,30.33
2017-12-05T15:59:04.416Z,42.23
2017-12-05T16:01:31.484Z,41.13
2017-12-05T16:03:59.528Z,31.70
2017-12-05T16:06:26.427Z,34.83
2017-12-05T16:08:53.273Z,20.90
2017-12-05T16:11:21.782Z,32.80
2017-12-05T16:13:49.324Z,28.00
2017-12-05T16:16:16.689Z,29.30
2017-12-05T16:21:22.582Z,29.67
2017-12-05T16:23:49.673Z,23.30
2017-12-05T16:26:16.663Z,31.90
2017-12-05T16:28:44.350Z,46.80
2017-12-05T16:31:19.039Z,41.37
2017-12-05T16:33:46.848Z,28.30
2017-12-05T16:36:15.340Z,29.67
2017-12-05T16:38:42.795Z,33.17
2017-12-05T16:41:10.087Z,31.90
2017-12-05T16:43:37.045Z,42.47
2017-12-05T16:48:44.049Z,41.33
2017-12-05T16:51:12.634Z,33.73
2017-12-05T16:53:39.992Z,37.43
2017-12-05T16:56:07.699Z,48.10
2017-12-05T17:01:14.227Z,31.43
2017-12-05T17:03:42.710Z,35.33
2017-12-05T17:06:13.659Z,31.90
2017-12-05T17:08:40.579Z,33.60
2017-12-05T17:11:08.613Z,38.70
2017-12-05T17:13:35.884Z,36.53
2017-12-05T17:16:02.735Z,38.93
2017-12-05T17:18:29.696Z,31.90
2017-12-05T17:20:56.570Z,41.67
2017-12-05T17:23:25.647Z,28.10
2017-12-05T17:28:37.540Z,32.30
2017-12-05T17:31:06.008Z,27.73
2017-12-05T17:33:32.850Z,47.47
2017-12-05T17:36:00.121Z,31.27
2017-12-05T17:38:31.683Z,31.07
2017-12-05T17:43:49.239Z,26.30
2017-12-05T17:46:16.584Z,26.70
2017-12-05T17:48:43.435Z,24.47
2017-12-05T17:51:11.095Z,31.50
2017-12-05T17:53:49.291Z,22.17
2017-12-05T17:56:25.212Z,29.20
2017-12-05T17:58:52.872Z,20.13
2017-12-05T18:01:20.610Z,21.73
2017-12-05T18:03:47.459Z,23.30
2017-12-05T18:06:19.643Z,23.30
2017-12-05T18:08:46.687Z,29.27
2017-12-05T18:11:14.107Z,23.37
2017-12-05T18:13:49.218Z,21.90
2017-12-05T18:16:16.252Z,26.80
2017-12-05T18:21:23.565Z,27.03
2017-12-05T18:23:55.515Z,18.47
2017-12-05T18:26:22.984Z,25.20
2017-12-05T18:28:51.437Z,20.47
2017-12-05T18:31:25.166Z,32.73
2017-12-05T18:36:31.026Z,26.17
2017-12-05T18:41:37.235Z,37.27
2017-12-05T18:44:04.494Z,55.70
2017-12-05T18:46:32.107Z,21.53
2017-12-05T18:51:49.288Z,24.50
2017-12-05T18:54:17.872Z,24.90
2017-12-05T18:59:23.578Z,22.67
2017-12-05T19:01:50.495Z,25.60
2017-12-05T19:04:17.378Z,19.73
2017-12-05T19:06:44.311Z,23.87
2017-12-05T19:09:19.122Z,22.67
2017-12-05T19:11:55.143Z,20.17
2017-12-05T19:14:22.464Z,24.50
2017-12-05T19:16:50.120Z,20.53
2017-12-05T19:19:16.967Z,19.83
2017-12-05T19:21:44.420Z,21.57
2017-12-05T19:24:11.287Z,17.00
2017-12-05T19:26:49.258Z,18.93
2017-12-05T19:29:16.275Z,22.77
2017-12-05T19:31:43.250Z,26.97
2017-12-05T19:34:13.586Z,20.43
2017-12-05T19:36:40.451Z,28.87
2017-12-05T19:39:13.096Z,25.73
2017-12-05T19:41:49.279Z,21.17
2017-12-05T19:44:25.220Z,19.87
2017-12-05T19:46:52.600Z,23.17
2017-12-05T19:54:37.862Z,18.30
2017-12-05T19:57:13.229Z,19.30
2017-12-05T19:59:40.152Z,16.53
2017-12-05T20:02:19.226Z,24.40
2017-12-05T20:04:46.559Z,19.90
2017-12-05T20:07:13.402Z,15.20
2017-12-05T20:12:19.531Z,15.53
2017-12-05T20:14:47.727Z,16.60
2017-12-05T20:17:14.680Z,21.47
2017-12-05T20:22:21.080Z,20.07
2017-12-05T20:24:49.936Z,19.20
2017-12-05T20:27:17.648Z,20.00
2017-12-05T20:29:55.195Z,17.23
2017-12-05T20:32:22.535Z,19.23
2017-12-05T20:34:55.284Z,22.27
2017-12-05T20:37:22.219Z,15.43
2017-12-05T20:39:49.782Z,21.13
2017-12-05T20:42:19.770Z,25.93
2017-12-05T20:44:49.822Z,24.37
2017-12-05T20:47:17.131Z,18.70
2017-12-05T20:49:49.823Z,20.70
2017-12-05T20:54:55.635Z,17.10
2017-12-05T20:57:23.337Z,19.13
2017-12-05T21:02:31.802Z,35.73
2017-12-05T21:05:07.104Z,22.77
2017-12-05T21:07:34.524Z,16.27
2017-12-05T21:10:01.895Z,17.73
2017-12-05T21:12:31.634Z,17.47
2017-12-05T21:15:01.734Z,22.90
2017-12-05T21:17:31.645Z,19.73
2017-12-05T21:22:39.323Z,17.20
2017-12-05T21:27:46.951Z,28.57
2017-12-05T21:30:14.300Z,16.03
2017-12-05T21:32:41.162Z,18.63
2017-12-05T21:35:13.721Z,32.97
2017-12-05T21:37:49.354Z,18.40
2017-12-05T21:45:35.343Z,16.70
2017-12-05T21:48:07.663Z,13.97
2017-12-05T21:50:36.162Z,15.37
2017-12-05T21:53:07.691Z,17.30
2017-12-05T21:58:19.156Z,14.33
2017-12-05T22:00:46.043Z,14.07
2017-12-05T22:03:13.382Z,15.80
2017-12-05T22:05:41.383Z,14.27
2017-12-05T22:08:09.015Z,15.87
2017-12-05T22:10:35.925Z,17.60
2017-12-05T22:15:43.761Z,11.60
2017-12-05T22:18:19.439Z,11.70
2017-12-05T22:20:46.803Z,16.20
2017-12-05T22:23:13.682Z,13.90
2017-12-05T22:25:43.790Z,15.17
2017-12-05T22:28:10.637Z,20.13
2017-12-05T22:30:37.939Z,15.30
2017-12-05T22:33:05.335Z,14.63
2017-12-05T22:38:19.171Z,13.97
2017-12-05T22:43:25.863Z,13.90
2017-12-05T22:45:53.114Z,13.50
2017-12-05T22:51:07.153Z,17.33
2017-12-05T22:53:34.498Z,15.17
2017-12-05T22:58:41.975Z,23.47
2017-12-05T23:01:09.248Z,12.87
2017-12-05T23:03:37.639Z,21.60
2017-12-05T23:06:04.482Z,29.97
2017-12-05T23:08:37.705Z,26.20
2017-12-05T23:11:07.784Z,15.40
2017-12-05T23:13:43.135Z,13.20
2017-12-05T23:18:50.520Z,13.27
2017-12-05T23:21:17.478Z,19.10
2017-12-05T23:23:44.771Z,15.90
2017-12-05T23:26:13.203Z,11.00
2017-12-05T23:31:19.235Z,10.90
2017-12-05T23:36:31.689Z,13.83
2017-12-05T23:38:59.003Z,21.67
2017-12-05T23:41:25.862Z,15.87
2017-12-05T23:43:52.883Z,17.03
2017-12-05T23:46:20.921Z,18.07
2017-12-05T23:49:01.231Z,20.67
2017-12-05T23:56:45.719Z,11.60
2017-12-05T23:59:13.047Z,24.63
